sensor_id;sensor_type;location;lat;lon;timestamp;temperature;humidity
25468;DHT22;13384;24.794;110.498;2023-07-31T00:00:30;27.30;99.90
25468;DHT22;13384;24.794;110.498;2023-07-31T00:03:01;27.30;99.90
25468;DHT22;13384;24.794;110.498;2023-07-31T00:05:34;27.40;99.90
25468;DHT22;13384;24.794;110.498;2023-07-31T00:08:05;27.50;99.90
25468;DHT22;13384;24.794;110.498;2023-07-31T00:10:38;27.60;99.90
25468;DHT22;13384;24.794;110.498;2023-07-31T00:13:10;27.50;99.90
25468;DHT22;13384;24.794;110.498;2023-07-31T00:15:42;27.50;99.90
25468;DHT22;13384;24.794;110.498;2023-07-31T00:18:13;27.50;99.90
25468;DHT22;13384;24.794;110.498;2023-07-31T00:20:45;27.60;99.90
25468;DHT22;13384;24.794;110.498;2023-07-31T00:23:16;27.70;99.90
25468;DHT22;13384;24.794;110.498;2023-07-31T00:25:48;27.80;99.90
25468;DHT22;13384;24.794;110.498;2023-07-31T00:28:19;27.80;99.90
25468;DHT22;13384;24.794;110.498;2023-07-31T00:30:51;27.70;99.90
25468;DHT22;13384;24.794;110.498;2023-07-31T00:33:27;27.60;99.90
25468;DHT22;13384;24.794;110.498;2023-07-31T00:35:58;27.60;99.90
25468;DHT22;13384;24.794;110.498;2023-07-31T00:38:35;27.50;99.90
25468;DHT22;13384;24.794;110.498;2023-07-31T00:41:07;27.50;99.90
25468;DHT22;13384;24.794;110.498;2023-07-31T00:43:40;27.50;99.90
25468;DHT22;13384;24.794;110.498;2023-07-31T00:46:12;27.50;99.90
25468;DHT22;13384;24.794;110.498;2023-07-31T00:48:45;27.40;99.90
25468;DHT22;13384;24.794;110.498;2023-07-31T00:51:16;27.40;99.90
25468;DHT22;13384;24.794;110.498;2023-07-31T00:53:51;27.50;99.90
25468;DHT22;13384;24.794;110.498;2023-07-31T00:56:24;27.50;99.90
25468;DHT22;13384;24.794;110.498;2023-07-31T00:58:56;27.60;99.90
25468;DHT22;13384;24.794;110.498;2023-07-31T01:01:28;27.50;99.90
25468;DHT22;13384;24.794;110.498;2023-07-31T01:04:00;27.50;99.90
25468;DHT22;13384;24.794;110.498;2023-07-31T01:06:40;27.50;99.90
25468;DHT22;13384;24.794;110.498;2023-07-31T01:09:45;27.50;99.90
25468;DHT22;13384;24.794;110.498;2023-07-31T01:12:20;27.60;99.90
25468;DHT22;13384;24.794;110.498;2023-07-31T01:15:09;27.60;99.90
25468;DHT22;13384;24.794;110.498;2023-07-31T01:17:45;27.70;99.90
25468;DHT22;13384;24.794;110.498;2023-07-31T01:20:27;27.70;99.90
25468;DHT22;13384;24.794;110.498;2023-07-31T01:26:25;27.80;99.90
25468;DHT22;13384;24.794;110.498;2023-07-31T01:29:10;27.90;99.90
25468;DHT22;13384;24.794;110.498;2023-07-31T01:31:47;28.00;99.90
25468;DHT22;13384;24.794;110.498;2023-07-31T01:34:20;28.00;99.90
25468;DHT22;13384;24.794;110.498;2023-07-31T01:36:53;28.10;99.90
25468;DHT22;13384;24.794;110.498;2023-07-31T01:39:25;28.10;99.90
25468;DHT22;13384;24.794;110.498;2023-07-31T01:41:56;28.20;99.90
25468;DHT22;13384;24.794;110.498;2023-07-31T01:44:28;28.30;99.90
25468;DHT22;13384;24.794;110.498;2023-07-31T01:46:59;28.30;99.90
25468;DHT22;13384;24.794;110.498;2023-07-31T01:49:31;28.20;99.90
25468;DHT22;13384;24.794;110.498;2023-07-31T01:52:02;28.40;99.90
25468;DHT22;13384;24.794;110.498;2023-07-31T01:54:38;28.50;99.90
25468;DHT22;13384;24.794;110.498;2023-07-31T01:57:09;28.50;99.90
25468;DHT22;13384;24.794;110.498;2023-07-31T01:59:42;28.60;99.90
25468;DHT22;13384;24.794;110.498;2023-07-31T02:02:14;28.50;99.90
25468;DHT22;13384;24.794;110.498;2023-07-31T02:04:46;28.50;99.90
25468;DHT22;13384;24.794;110.498;2023-07-31T02:07:17;28.50;99.90
25468;DHT22;13384;24.794;110.498;2023-07-31T02:09:48;28.50;99.90
25468;DHT22;13384;24.794;110.498;2023-07-31T02:12:21;28.60;99.90
25468;DHT22;13384;24.794;110.498;2023-07-31T02:14:52;28.60;99.90
25468;DHT22;13384;24.794;110.498;2023-07-31T02:17:24;28.80;99.90
25468;DHT22;13384;24.794;110.498;2023-07-31T02:19:55;29.00;99.90
25468;DHT22;13384;24.794;110.498;2023-07-31T02:22:27;28.90;99.90
25468;DHT22;13384;24.794;110.498;2023-07-31T02:24:59;28.80;99.90
25468;DHT22;13384;24.794;110.498;2023-07-31T02:27:30;28.70;99.90
25468;DHT22;13384;24.794;110.498;2023-07-31T02:30:02;28.70;99.90
25468;DHT22;13384;24.794;110.498;2023-07-31T02:32:34;28.80;99.90
25468;DHT22;13384;24.794;110.498;2023-07-31T02:35:06;28.90;99.90
25468;DHT22;13384;24.794;110.498;2023-07-31T02:37:44;29.00;99.90
25468;DHT22;13384;24.794;110.498;2023-07-31T02:40:16;29.20;99.90
25468;DHT22;13384;24.794;110.498;2023-07-31T02:42:47;29.40;99.90
25468;DHT22;13384;24.794;110.498;2023-07-31T02:45:19;29.50;99.90
25468;DHT22;13384;24.794;110.498;2023-07-31T02:47:51;29.70;99.90
25468;DHT22;13384;24.794;110.498;2023-07-31T02:50:22;29.50;99.90
25468;DHT22;13384;24.794;110.498;2023-07-31T02:52:54;29.40;99.90
25468;DHT22;13384;24.794;110.498;2023-07-31T02:55:28;29.30;99.90
25468;DHT22;13384;24.794;110.498;2023-07-31T02:58:03;29.40;99.90
25468;DHT22;13384;24.794;110.498;2023-07-31T03:00:34;29.40;99.90
25468;DHT22;13384;24.794;110.498;2023-07-31T03:03:06;29.60;99.90
25468;DHT22;13384;24.794;110.498;2023-07-31T03:05:47;29.90;99.90
25468;DHT22;13384;24.794;110.498;2023-07-31T03:08:19;29.80;99.90
25468;DHT22;13384;24.794;110.498;2023-07-31T03:10:51;29.70;99.90
25468;DHT22;13384;24.794;110.498;2023-07-31T03:13:23;29.80;99.90
25468;DHT22;13384;24.794;110.498;2023-07-31T03:15:54;29.90;99.90
25468;DHT22;13384;24.794;110.498;2023-07-31T03:18:27;29.90;99.90
25468;DHT22;13384;24.794;110.498;2023-07-31T03:20:58;29.70;99.90
25468;DHT22;13384;24.794;110.498;2023-07-31T03:23:30;29.90;99.90
25468;DHT22;13384;24.794;110.498;2023-07-31T03:26:07;29.80;99.90
25468;DHT22;13384;24.794;110.498;2023-07-31T03:28:39;29.90;99.90
25468;DHT22;13384;24.794;110.498;2023-07-31T03:31:10;30.10;99.90
25468;DHT22;13384;24.794;110.498;2023-07-31T03:33:42;30.30;99.90
25468;DHT22;13384;24.794;110.498;2023-07-31T03:36:13;30.50;99.90
25468;DHT22;13384;24.794;110.498;2023-07-31T03:38:45;30.30;99.90
25468;DHT22;13384;24.794;110.498;2023-07-31T03:41:16;30.30;99.90
25468;DHT22;13384;24.794;110.498;2023-07-31T03:43:50;30.10;99.90
25468;DHT22;13384;24.794;110.498;2023-07-31T03:46:33;30.40;99.90
25468;DHT22;13384;24.794;110.498;2023-07-31T03:49:06;30.50;99.90
25468;DHT22;13384;24.794;110.498;2023-07-31T03:51:37;30.60;99.90
25468;DHT22;13384;24.794;110.498;2023-07-31T03:54:09;30.80;99.90
25468;DHT22;13384;24.794;110.498;2023-07-31T03:56:40;31.00;99.90
25468;DHT22;13384;24.794;110.498;2023-07-31T03:59:12;31.00;99.90
25468;DHT22;13384;24.794;110.498;2023-07-31T04:01:44;30.80;99.90
25468;DHT22;13384;24.794;110.498;2023-07-31T04:04:15;30.70;99.90
25468;DHT22;13384;24.794;110.498;2023-07-31T04:06:46;30.60;99.90
25468;DHT22;13384;24.794;110.498;2023-07-31T04:09:18;30.60;99.90
25468;DHT22;13384;24.794;110.498;2023-07-31T04:11:50;30.70;99.90
25468;DHT22;13384;24.794;110.498;2023-07-31T04:14:21;30.60;99.90
25468;DHT22;13384;24.794;110.498;2023-07-31T04:16:53;30.70;99.90
25468;DHT22;13384;24.794;110.498;2023-07-31T04:19:24;30.90;99.90
25468;DHT22;13384;24.794;110.498;2023-07-31T04:21:56;31.20;99.90
25468;DHT22;13384;24.794;110.498;2023-07-31T04:24:27;31.10;99.90
25468;DHT22;13384;24.794;110.498;2023-07-31T04:26:58;31.30;99.90
25468;DHT22;13384;24.794;110.498;2023-07-31T04:29:29;31.40;99.90
25468;DHT22;13384;24.794;110.498;2023-07-31T04:32:13;31.50;99.90
25468;DHT22;13384;24.794;110.498;2023-07-31T04:34:47;31.50;99.90
25468;DHT22;13384;24.794;110.498;2023-07-31T04:37:25;31.50;99.90
25468;DHT22;13384;24.794;110.498;2023-07-31T04:39:57;31.70;99.90
25468;DHT22;13384;24.794;110.498;2023-07-31T04:42:30;31.90;99.90
25468;DHT22;13384;24.794;110.498;2023-07-31T04:45:01;32.20;99.90
25468;DHT22;13384;24.794;110.498;2023-07-31T04:47:32;32.50;99.90
25468;DHT22;13384;24.794;110.498;2023-07-31T04:50:04;32.30;99.90
25468;DHT22;13384;24.794;110.498;2023-07-31T04:52:36;32.60;99.90
25468;DHT22;13384;24.794;110.498;2023-07-31T04:55:07;32.90;99.90
25468;DHT22;13384;24.794;110.498;2023-07-31T04:57:39;32.50;99.90
25468;DHT22;13384;24.794;110.498;2023-07-31T05:00:11;32.60;99.90
25468;DHT22;13384;24.794;110.498;2023-07-31T05:02:43;33.00;99.90
25468;DHT22;13384;24.794;110.498;2023-07-31T05:05:14;32.80;99.90
25468;DHT22;13384;24.794;110.498;2023-07-31T05:07:45;33.00;99.90
25468;DHT22;13384;24.794;110.498;2023-07-31T05:10:23;33.20;99.90
25468;DHT22;13384;24.794;110.498;2023-07-31T05:12:54;33.20;99.90
25468;DHT22;13384;24.794;110.498;2023-07-31T05:15:30;33.40;99.90
25468;DHT22;13384;24.794;110.498;2023-07-31T05:18:01;33.50;99.90
25468;DHT22;13384;24.794;110.498;2023-07-31T05:20:35;32.80;99.90
25468;DHT22;13384;24.794;110.498;2023-07-31T05:23:06;32.80;99.90
25468;DHT22;13384;24.794;110.498;2023-07-31T05:25:38;32.60;99.90
25468;DHT22;13384;24.794;110.498;2023-07-31T05:28:09;32.60;99.90
25468;DHT22;13384;24.794;110.498;2023-07-31T05:30:40;32.60;99.90
25468;DHT22;13384;24.794;110.498;2023-07-31T05:33:12;32.30;99.90
25468;DHT22;13384;24.794;110.498;2023-07-31T05:35:44;32.20;99.90
25468;DHT22;13384;24.794;110.498;2023-07-31T05:38:16;32.30;99.90
25468;DHT22;13384;24.794;110.498;2023-07-31T05:40:48;32.70;99.90
25468;DHT22;13384;24.794;110.498;2023-07-31T05:43:20;33.10;99.90
25468;DHT22;13384;24.794;110.498;2023-07-31T05:45:54;33.40;99.90
25468;DHT22;13384;24.794;110.498;2023-07-31T05:48:27;33.70;99.90
25468;DHT22;13384;24.794;110.498;2023-07-31T05:50:58;33.90;99.90
25468;DHT22;13384;24.794;110.498;2023-07-31T05:53:29;34.10;99.90
25468;DHT22;13384;24.794;110.498;2023-07-31T05:56:01;34.10;99.90
25468;DHT22;13384;24.794;110.498;2023-07-31T05:58:32;33.40;99.90
25468;DHT22;13384;24.794;110.498;2023-07-31T06:01:03;33.20;99.90
25468;DHT22;13384;24.794;110.498;2023-07-31T06:03:34;33.10;99.90
25468;DHT22;13384;24.794;110.498;2023-07-31T06:06:06;33.00;99.90
25468;DHT22;13384;24.794;110.498;2023-07-31T06:08:38;33.10;99.90
25468;DHT22;13384;24.794;110.498;2023-07-31T06:11:10;33.30;99.90
25468;DHT22;13384;24.794;110.498;2023-07-31T06:13:42;33.30;99.90
25468;DHT22;13384;24.794;110.498;2023-07-31T06:16:15;33.00;99.90
25468;DHT22;13384;24.794;110.498;2023-07-31T06:18:47;32.70;99.90
25468;DHT22;13384;24.794;110.498;2023-07-31T06:21:19;32.40;99.90
25468;DHT22;13384;24.794;110.498;2023-07-31T06:23:50;32.40;99.90
25468;DHT22;13384;24.794;110.498;2023-07-31T06:26:22;32.30;99.90
25468;DHT22;13384;24.794;110.498;2023-07-31T06:28:53;32.10;99.90
25468;DHT22;13384;24.794;110.498;2023-07-31T06:31:24;32.20;99.90
25468;DHT22;13384;24.794;110.498;2023-07-31T06:33:56;31.70;99.90
25468;DHT22;13384;24.794;110.498;2023-07-31T06:36:27;31.60;99.90
25468;DHT22;13384;24.794;110.498;2023-07-31T06:38:58;31.70;99.90
25468;DHT22;13384;24.794;110.498;2023-07-31T06:41:29;31.90;99.90
25468;DHT22;13384;24.794;110.498;2023-07-31T06:44:03;31.80;99.90
25468;DHT22;13384;24.794;110.498;2023-07-31T06:46:34;32.00;99.90
25468;DHT22;13384;24.794;110.498;2023-07-31T06:49:06;32.20;99.90
25468;DHT22;13384;24.794;110.498;2023-07-31T06:51:38;32.30;99.90
25468;DHT22;13384;24.794;110.498;2023-07-31T06:54:09;32.10;99.90
25468;DHT22;13384;24.794;110.498;2023-07-31T06:56:41;31.90;99.90
25468;DHT22;13384;24.794;110.498;2023-07-31T06:59:12;31.80;99.90
25468;DHT22;13384;24.794;110.498;2023-07-31T07:01:44;31.70;99.90
25468;DHT22;13384;24.794;110.498;2023-07-31T07:04:15;31.70;99.90
25468;DHT22;13384;24.794;110.498;2023-07-31T07:06:46;31.70;99.90
25468;DHT22;13384;24.794;110.498;2023-07-31T07:09:18;31.60;99.90
25468;DHT22;13384;24.794;110.498;2023-07-31T07:11:50;31.60;99.90
25468;DHT22;13384;24.794;110.498;2023-07-31T07:14:22;31.60;99.90
25468;DHT22;13384;24.794;110.498;2023-07-31T07:16:54;31.50;99.90
25468;DHT22;13384;24.794;110.498;2023-07-31T07:19:25;31.40;99.90
25468;DHT22;13384;24.794;110.498;2023-07-31T07:21:57;31.40;99.90
25468;DHT22;13384;24.794;110.498;2023-07-31T07:24:30;31.50;99.90
25468;DHT22;13384;24.794;110.498;2023-07-31T07:27:01;31.50;99.90
25468;DHT22;13384;24.794;110.498;2023-07-31T07:29:34;31.50;99.90
25468;DHT22;13384;24.794;110.498;2023-07-31T07:32:27;31.60;99.90
25468;DHT22;13384;24.794;110.498;2023-07-31T07:35:01;31.70;99.90
25468;DHT22;13384;24.794;110.498;2023-07-31T07:37:32;32.00;99.90
25468;DHT22;13384;24.794;110.498;2023-07-31T07:40:04;32.30;99.90
25468;DHT22;13384;24.794;110.498;2023-07-31T07:42:36;32.80;99.90
25468;DHT22;13384;24.794;110.498;2023-07-31T07:45:11;33.00;99.90
25468;DHT22;13384;24.794;110.498;2023-07-31T07:47:42;33.10;99.90
25468;DHT22;13384;24.794;110.498;2023-07-31T07:50:13;33.20;99.90
25468;DHT22;13384;24.794;110.498;2023-07-31T07:52:51;33.50;99.90
25468;DHT22;13384;24.794;110.498;2023-07-31T07:55:23;33.60;99.90
25468;DHT22;13384;24.794;110.498;2023-07-31T07:57:54;33.50;99.90
25468;DHT22;13384;24.794;110.498;2023-07-31T08:00:27;33.30;99.90
25468;DHT22;13384;24.794;110.498;2023-07-31T08:02:58;33.20;99.90
25468;DHT22;13384;24.794;110.498;2023-07-31T08:05:30;33.10;99.90
25468;DHT22;13384;24.794;110.498;2023-07-31T08:08:04;32.90;99.90
25468;DHT22;13384;24.794;110.498;2023-07-31T08:10:45;32.80;99.90
25468;DHT22;13384;24.794;110.498;2023-07-31T08:13:17;32.70;99.90
25468;DHT22;13384;24.794;110.498;2023-07-31T08:15:48;32.40;99.90
25468;DHT22;13384;24.794;110.498;2023-07-31T08:18:20;32.20;99.90
25468;DHT22;13384;24.794;110.498;2023-07-31T08:20:53;32.10;99.90
25468;DHT22;13384;24.794;110.498;2023-07-31T08:23:24;32.10;99.90
25468;DHT22;13384;24.794;110.498;2023-07-31T08:25:58;32.00;99.90
25468;DHT22;13384;24.794;110.498;2023-07-31T08:28:33;32.10;99.90
25468;DHT22;13384;24.794;110.498;2023-07-31T08:31:06;32.10;99.90
25468;DHT22;13384;24.794;110.498;2023-07-31T08:33:39;32.10;99.90
25468;DHT22;13384;24.794;110.498;2023-07-31T08:36:10;32.40;99.90
25468;DHT22;13384;24.794;110.498;2023-07-31T08:38:45;32.50;99.90
25468;DHT22;13384;24.794;110.498;2023-07-31T08:41:18;32.50;99.90
25468;DHT22;13384;24.794;110.498;2023-07-31T08:43:52;32.40;99.90
25468;DHT22;13384;24.794;110.498;2023-07-31T08:46:25;32.60;99.90
25468;DHT22;13384;24.794;110.498;2023-07-31T08:48:57;32.70;99.90
25468;DHT22;13384;24.794;110.498;2023-07-31T08:51:29;32.60;99.90
25468;DHT22;13384;24.794;110.498;2023-07-31T08:54:01;32.50;99.90
25468;DHT22;13384;24.794;110.498;2023-07-31T08:56:37;32.40;99.90
25468;DHT22;13384;24.794;110.498;2023-07-31T08:59:09;32.20;99.90
25468;DHT22;13384;24.794;110.498;2023-07-31T09:01:46;32.10;99.90
25468;DHT22;13384;24.794;110.498;2023-07-31T09:04:21;31.80;99.90
25468;DHT22;13384;24.794;110.498;2023-07-31T09:07:00;31.70;99.90
25468;DHT22;13384;24.794;110.498;2023-07-31T09:09:34;31.40;99.90
25468;DHT22;13384;24.794;110.498;2023-07-31T09:12:06;30.90;99.90
25468;DHT22;13384;24.794;110.498;2023-07-31T09:14:39;30.80;99.90
25468;DHT22;13384;24.794;110.498;2023-07-31T09:17:11;30.70;99.90
25468;DHT22;13384;24.794;110.498;2023-07-31T09:19:42;30.50;99.90
25468;DHT22;13384;24.794;110.498;2023-07-31T09:22:14;30.40;99.90
25468;DHT22;13384;24.794;110.498;2023-07-31T09:24:45;30.40;99.90
25468;DHT22;13384;24.794;110.498;2023-07-31T09:27:16;30.40;99.90
25468;DHT22;13384;24.794;110.498;2023-07-31T09:29:59;30.50;99.90
25468;DHT22;13384;24.794;110.498;2023-07-31T09:32:31;30.50;99.90
25468;DHT22;13384;24.794;110.498;2023-07-31T09:35:20;30.40;99.90
25468;DHT22;13384;24.794;110.498;2023-07-31T09:37:59;30.20;99.90
25468;DHT22;13384;24.794;110.498;2023-07-31T09:40:35;30.20;99.90
25468;DHT22;13384;24.794;110.498;2023-07-31T09:43:13;30.20;99.90
25468;DHT22;13384;24.794;110.498;2023-07-31T09:45:45;30.10;99.90
25468;DHT22;13384;24.794;110.498;2023-07-31T09:48:18;30.20;99.90
25468;DHT22;13384;24.794;110.498;2023-07-31T09:50:50;30.20;99.90
25468;DHT22;13384;24.794;110.498;2023-07-31T09:53:28;30.20;99.90
25468;DHT22;13384;24.794;110.498;2023-07-31T09:56:02;30.10;99.90
25468;DHT22;13384;24.794;110.498;2023-07-31T09:58:35;30.00;99.90
25468;DHT22;13384;24.794;110.498;2023-07-31T10:01:07;29.80;99.90
25468;DHT22;13384;24.794;110.498;2023-07-31T10:03:39;29.80;99.90
25468;DHT22;13384;24.794;110.498;2023-07-31T10:06:11;29.70;99.90
25468;DHT22;13384;24.794;110.498;2023-07-31T10:08:47;29.80;99.90
25468;DHT22;13384;24.794;110.498;2023-07-31T10:11:22;29.70;99.90
25468;DHT22;13384;24.794;110.498;2023-07-31T10:13:55;29.80;99.90
25468;DHT22;13384;24.794;110.498;2023-07-31T10:16:27;29.70;99.90
25468;DHT22;13384;24.794;110.498;2023-07-31T10:18:59;29.70;99.90
25468;DHT22;13384;24.794;110.498;2023-07-31T10:21:31;29.70;99.90
25468;DHT22;13384;24.794;110.498;2023-07-31T10:24:07;29.70;99.90
25468;DHT22;13384;24.794;110.498;2023-07-31T10:26:41;29.70;99.90
25468;DHT22;13384;24.794;110.498;2023-07-31T10:29:17;29.60;99.90
25468;DHT22;13384;24.794;110.498;2023-07-31T10:31:49;29.60;99.90
25468;DHT22;13384;24.794;110.498;2023-07-31T10:34:27;29.60;99.90
25468;DHT22;13384;24.794;110.498;2023-07-31T10:40:23;29.40;99.90
25468;DHT22;13384;24.794;110.498;2023-07-31T10:42:56;29.40;99.90
25468;DHT22;13384;24.794;110.498;2023-07-31T10:45:36;29.40;99.90
25468;DHT22;13384;24.794;110.498;2023-07-31T10:48:13;29.40;99.90
25468;DHT22;13384;24.794;110.498;2023-07-31T10:50:50;29.40;99.90
25468;DHT22;13384;24.794;110.498;2023-07-31T10:53:26;29.30;99.90
25468;DHT22;13384;24.794;110.498;2023-07-31T10:56:09;29.40;99.90
25468;DHT22;13384;24.794;110.498;2023-07-31T10:58:45;29.40;99.90
25468;DHT22;13384;24.794;110.498;2023-07-31T11:01:21;29.40;99.90
25468;DHT22;13384;24.794;110.498;2023-07-31T11:03:56;29.30;99.90
25468;DHT22;13384;24.794;110.498;2023-07-31T11:06:59;29.30;99.90
25468;DHT22;13384;24.794;110.498;2023-07-31T11:09:33;29.30;99.90
25468;DHT22;13384;24.794;110.498;2023-07-31T11:12:05;29.30;99.90
25468;DHT22;13384;24.794;110.498;2023-07-31T11:14:36;29.20;99.90
25468;DHT22;13384;24.794;110.498;2023-07-31T11:17:08;29.20;99.90
25468;DHT22;13384;24.794;110.498;2023-07-31T11:19:39;29.20;99.90
25468;DHT22;13384;24.794;110.498;2023-07-31T11:22:11;29.20;99.90
25468;DHT22;13384;24.794;110.498;2023-07-31T11:24:43;29.10;99.90
25468;DHT22;13384;24.794;110.498;2023-07-31T11:27:14;29.20;99.90
25468;DHT22;13384;24.794;110.498;2023-07-31T11:29:46;29.10;99.90
25468;DHT22;13384;24.794;110.498;2023-07-31T11:32:18;29.10;99.90
25468;DHT22;13384;24.794;110.498;2023-07-31T11:34:53;29.00;99.90
25468;DHT22;13384;24.794;110.498;2023-07-31T11:37:24;29.00;99.90
25468;DHT22;13384;24.794;110.498;2023-07-31T11:40:05;29.00;99.90
25468;DHT22;13384;24.794;110.498;2023-07-31T11:42:52;29.00;99.90
25468;DHT22;13384;24.794;110.498;2023-07-31T11:45:37;29.00;99.90
25468;DHT22;13384;24.794;110.498;2023-07-31T11:48:29;28.90;99.90
25468;DHT22;13384;24.794;110.498;2023-07-31T11:51:02;28.80;99.90
25468;DHT22;13384;24.794;110.498;2023-07-31T11:53:51;28.80;99.90
25468;DHT22;13384;24.794;110.498;2023-07-31T11:56:24;28.80;99.90
25468;DHT22;13384;24.794;110.498;2023-07-31T11:59:00;28.80;99.90
25468;DHT22;13384;24.794;110.498;2023-07-31T12:01:33;28.80;99.90
25468;DHT22;13384;24.794;110.498;2023-07-31T12:04:06;28.70;99.90
25468;DHT22;13384;24.794;110.498;2023-07-31T12:06:38;28.70;99.90
25468;DHT22;13384;24.794;110.498;2023-07-31T12:09:10;28.70;99.90
25468;DHT22;13384;24.794;110.498;2023-07-31T12:11:46;28.70;99.90
25468;DHT22;13384;24.794;110.498;2023-07-31T12:14:21;28.70;99.90
25468;DHT22;13384;24.794;110.498;2023-07-31T12:17:06;28.70;99.90
25468;DHT22;13384;24.794;110.498;2023-07-31T12:19:38;28.60;99.90
25468;DHT22;13384;24.794;110.498;2023-07-31T12:22:16;28.60;99.90
25468;DHT22;13384;24.794;110.498;2023-07-31T12:24:47;28.60;99.90
25468;DHT22;13384;24.794;110.498;2023-07-31T12:27:19;28.60;99.90
25468;DHT22;13384;24.794;110.498;2023-07-31T12:30:10;28.60;99.90
25468;DHT22;13384;24.794;110.498;2023-07-31T12:32:57;28.60;99.90
25468;DHT22;13384;24.794;110.498;2023-07-31T12:35:36;28.60;99.90
25468;DHT22;13384;24.794;110.498;2023-07-31T12:38:21;28.50;99.90
25468;DHT22;13384;24.794;110.498;2023-07-31T12:40:53;28.50;99.90
25468;DHT22;13384;24.794;110.498;2023-07-31T12:43:40;28.50;99.90
25468;DHT22;13384;24.794;110.498;2023-07-31T12:46:11;28.40;99.90
25468;DHT22;13384;24.794;110.498;2023-07-31T12:48:43;28.50;99.90
